Adelaide International Airport

Airport
ICAO code: 
YPAD
IATA Code: 
ADL
Summary
ICAO Region: 
APAC
Territory: 
Location: 
, South Australia
Serving: 
Adelaide
Elevation: 
20 ft
Coordinates: 
Aerial View: 
34° 56' 42" S, 138° 31' 50.002" E
Metar
Observation
YPAD 221200Z 06004KT 9999 VCSH NSC 23/21 Q1012
Station
Adelaide Airport
Date/Time
2022-01-22 12:00:00
Wind direction
60°
Wind speed
04 kts
Lowest cloud amount
nil significant cloud
Temperature
23°C
Dew point
21°C
Humidity
88%
QNH
1012 hPa
Weather condition
in vicinity: showers

Runways

Designator Length Width Surface Rops
12/30 1652 45 ASP Yes/Yes
5/23 3100 45 ASP Yes/Yes
Airport map: 
Aerial View: 

Accidents and Serious Incidents at or in the vicinity of YPAD

SKYbrary Partners:

Safety knowledge contributed by: